sensor_id;sensor_type;location;lat;lon;timestamp;P1;durP1;ratioP1;P2;durP2;ratioP2
49910;SDS011;35803;53.096;5.844;2023-04-24T00:01:54;8.27;;;5.53;;
49910;SDS011;35803;53.096;5.844;2023-04-24T00:04:21;7.80;;;5.22;;
49910;SDS011;35803;53.096;5.844;2023-04-24T00:06:47;8.25;;;6.07;;
49910;SDS011;35803;53.096;5.844;2023-04-24T00:09:18;9.02;;;6.03;;
49910;SDS011;35803;53.096;5.844;2023-04-24T00:11:43;9.13;;;6.22;;
49910;SDS011;35803;53.096;5.844;2023-04-24T00:14:09;10.15;;;6.03;;
49910;SDS011;35803;53.096;5.844;2023-04-24T00:16:35;10.05;;;6.20;;
49910;SDS011;35803;53.096;5.844;2023-04-24T00:19:00;10.57;;;7.05;;
49910;SDS011;35803;53.096;5.844;2023-04-24T00:21:26;10.90;;;7.00;;
49910;SDS011;35803;53.096;5.844;2023-04-24T00:23:52;10.93;;;6.60;;
49910;SDS011;35803;53.096;5.844;2023-04-24T00:26:20;9.70;;;6.72;;
49910;SDS011;35803;53.096;5.844;2023-04-24T00:28:46;9.68;;;6.40;;
49910;SDS011;35803;53.096;5.844;2023-04-24T00:31:12;9.70;;;6.65;;
49910;SDS011;35803;53.096;5.844;2023-04-24T00:33:37;10.15;;;7.03;;
49910;SDS011;35803;53.096;5.844;2023-04-24T00:36:03;10.63;;;7.57;;
49910;SDS011;35803;53.096;5.844;2023-04-24T00:38:28;9.75;;;6.07;;
49910;SDS011;35803;53.096;5.844;2023-04-24T00:40:54;8.50;;;6.15;;
49910;SDS011;35803;53.096;5.844;2023-04-24T00:43:20;11.13;;;7.22;;
49910;SDS011;35803;53.096;5.844;2023-04-24T00:45:45;9.65;;;6.57;;
49910;SDS011;35803;53.096;5.844;2023-04-24T00:48:11;10.43;;;7.00;;
49910;SDS011;35803;53.096;5.844;2023-04-24T00:50:37;10.80;;;6.65;;
49910;SDS011;35803;53.096;5.844;2023-04-24T00:53:03;9.95;;;6.55;;
49910;SDS011;35803;53.096;5.844;2023-04-24T00:55:29;8.45;;;6.18;;
49910;SDS011;35803;53.096;5.844;2023-04-24T00:57:55;10.30;;;6.90;;
49910;SDS011;35803;53.096;5.844;2023-04-24T01:00:21;10.85;;;7.05;;
49910;SDS011;35803;53.096;5.844;2023-04-24T01:02:47;8.82;;;6.20;;
49910;SDS011;35803;53.096;5.844;2023-04-24T01:05:13;11.48;;;6.75;;
49910;SDS011;35803;53.096;5.844;2023-04-24T01:07:43;9.80;;;6.45;;
49910;SDS011;35803;53.096;5.844;2023-04-24T01:10:11;10.43;;;6.75;;
49910;SDS011;35803;53.096;5.844;2023-04-24T01:12:37;9.70;;;6.32;;
49910;SDS011;35803;53.096;5.844;2023-04-24T01:15:02;11.63;;;7.32;;
49910;SDS011;35803;53.096;5.844;2023-04-24T01:17:29;12.10;;;7.32;;
49910;SDS011;35803;53.096;5.844;2023-04-24T01:19:54;11.60;;;7.50;;
49910;SDS011;35803;53.096;5.844;2023-04-24T01:22:22;10.07;;;6.97;;
49910;SDS011;35803;53.096;5.844;2023-04-24T01:24:48;11.02;;;7.00;;
49910;SDS011;35803;53.096;5.844;2023-04-24T01:27:14;10.93;;;6.93;;
49910;SDS011;35803;53.096;5.844;2023-04-24T01:29:40;9.60;;;6.80;;
49910;SDS011;35803;53.096;5.844;2023-04-24T01:32:06;12.98;;;7.38;;
49910;SDS011;35803;53.096;5.844;2023-04-24T01:34:31;11.00;;;7.47;;
49910;SDS011;35803;53.096;5.844;2023-04-24T01:36:57;11.68;;;7.22;;
49910;SDS011;35803;53.096;5.844;2023-04-24T01:39:23;12.60;;;7.40;;
49910;SDS011;35803;53.096;5.844;2023-04-24T01:41:50;10.57;;;6.93;;
49910;SDS011;35803;53.096;5.844;2023-04-24T01:44:17;10.32;;;6.28;;
49910;SDS011;35803;53.096;5.844;2023-04-24T01:46:43;10.27;;;6.70;;
49910;SDS011;35803;53.096;5.844;2023-04-24T01:49:08;9.10;;;6.28;;
49910;SDS011;35803;53.096;5.844;2023-04-24T01:51:34;10.50;;;5.80;;
49910;SDS011;35803;53.096;5.844;2023-04-24T01:53:59;8.20;;;5.75;;
49910;SDS011;35803;53.096;5.844;2023-04-24T01:56:25;7.72;;;5.10;;
49910;SDS011;35803;53.096;5.844;2023-04-24T01:58:51;8.45;;;5.22;;
49910;SDS011;35803;53.096;5.844;2023-04-24T02:01:18;8.55;;;5.55;;
49910;SDS011;35803;53.096;5.844;2023-04-24T02:03:44;8.40;;;5.47;;
49910;SDS011;35803;53.096;5.844;2023-04-24T02:06:09;8.05;;;5.35;;
49910;SDS011;35803;53.096;5.844;2023-04-24T02:08:35;8.77;;;5.05;;
49910;SDS011;35803;53.096;5.844;2023-04-24T02:11:00;8.05;;;5.18;;
49910;SDS011;35803;53.096;5.844;2023-04-24T02:13:27;7.15;;;5.05;;
49910;SDS011;35803;53.096;5.844;2023-04-24T02:15:53;9.43;;;5.28;;
49910;SDS011;35803;53.096;5.844;2023-04-24T02:18:18;9.15;;;5.15;;
49910;SDS011;35803;53.096;5.844;2023-04-24T02:20:44;8.20;;;5.72;;
49910;SDS011;35803;53.096;5.844;2023-04-24T02:23:10;7.88;;;5.25;;
49910;SDS011;35803;53.096;5.844;2023-04-24T02:25:36;12.90;;;5.85;;
49910;SDS011;35803;53.096;5.844;2023-04-24T02:28:01;8.38;;;5.50;;
49910;SDS011;35803;53.096;5.844;2023-04-24T02:30:28;9.90;;;5.80;;
49910;SDS011;35803;53.096;5.844;2023-04-24T02:32:53;9.77;;;5.57;;
49910;SDS011;35803;53.096;5.844;2023-04-24T02:35:19;9.07;;;5.78;;
49910;SDS011;35803;53.096;5.844;2023-04-24T02:37:45;10.05;;;6.30;;
49910;SDS011;35803;53.096;5.844;2023-04-24T02:40:10;6.35;;;4.35;;
49910;SDS011;35803;53.096;5.844;2023-04-24T02:42:36;6.25;;;4.45;;
49910;SDS011;35803;53.096;5.844;2023-04-24T02:45:02;7.38;;;4.85;;
49910;SDS011;35803;53.096;5.844;2023-04-24T02:47:27;7.32;;;4.63;;
49910;SDS011;35803;53.096;5.844;2023-04-24T02:49:53;6.57;;;4.50;;
49910;SDS011;35803;53.096;5.844;2023-04-24T02:52:18;6.82;;;3.85;;
49910;SDS011;35803;53.096;5.844;2023-04-24T02:54:44;5.28;;;3.53;;
49910;SDS011;35803;53.096;5.844;2023-04-24T02:57:09;5.40;;;3.38;;
49910;SDS011;35803;53.096;5.844;2023-04-24T02:59:35;6.13;;;3.38;;
49910;SDS011;35803;53.096;5.844;2023-04-24T03:02:00;5.60;;;3.42;;
49910;SDS011;35803;53.096;5.844;2023-04-24T03:04:26;6.07;;;3.15;;
49910;SDS011;35803;53.096;5.844;2023-04-24T03:06:52;4.15;;;2.75;;
49910;SDS011;35803;53.096;5.844;2023-04-24T03:09:20;3.58;;;2.55;;
49910;SDS011;35803;53.096;5.844;2023-04-24T03:11:46;4.10;;;2.67;;
49910;SDS011;35803;53.096;5.844;2023-04-24T03:14:12;3.08;;;2.20;;
49910;SDS011;35803;53.096;5.844;2023-04-24T03:16:37;4.18;;;2.65;;
49910;SDS011;35803;53.096;5.844;2023-04-24T03:19:03;3.42;;;2.67;;
49910;SDS011;35803;53.096;5.844;2023-04-24T03:21:28;4.75;;;2.95;;
49910;SDS011;35803;53.096;5.844;2023-04-24T03:23:54;4.90;;;3.03;;
49910;SDS011;35803;53.096;5.844;2023-04-24T03:26:19;4.38;;;3.03;;
49910;SDS011;35803;53.096;5.844;2023-04-24T03:28:48;4.68;;;3.00;;
49910;SDS011;35803;53.096;5.844;2023-04-24T03:31:13;4.30;;;2.97;;
49910;SDS011;35803;53.096;5.844;2023-04-24T03:33:40;4.78;;;3.45;;
49910;SDS011;35803;53.096;5.844;2023-04-24T03:36:06;5.25;;;3.58;;
49910;SDS011;35803;53.096;5.844;2023-04-24T03:38:32;6.75;;;4.20;;
49910;SDS011;35803;53.096;5.844;2023-04-24T03:40:57;10.48;;;4.63;;
49910;SDS011;35803;53.096;5.844;2023-04-24T03:43:23;6.22;;;4.28;;
49910;SDS011;35803;53.096;5.844;2023-04-24T03:45:48;9.77;;;5.00;;
49910;SDS011;35803;53.096;5.844;2023-04-24T03:48:14;8.60;;;5.40;;
49910;SDS011;35803;53.096;5.844;2023-04-24T03:50:40;10.02;;;6.10;;
49910;SDS011;35803;53.096;5.844;2023-04-24T03:53:07;12.75;;;6.97;;
49910;SDS011;35803;53.096;5.844;2023-04-24T03:55:33;13.65;;;7.70;;
49910;SDS011;35803;53.096;5.844;2023-04-24T03:57:59;14.60;;;8.30;;
49910;SDS011;35803;53.096;5.844;2023-04-24T04:00:24;15.35;;;8.30;;
49910;SDS011;35803;53.096;5.844;2023-04-24T04:02:51;12.30;;;7.03;;
49910;SDS011;35803;53.096;5.844;2023-04-24T04:05:16;12.27;;;6.78;;
49910;SDS011;35803;53.096;5.844;2023-04-24T04:07:42;12.18;;;7.10;;
49910;SDS011;35803;53.096;5.844;2023-04-24T04:10:07;9.13;;;5.43;;
49910;SDS011;35803;53.096;5.844;2023-04-24T04:12:33;11.02;;;4.82;;
49910;SDS011;35803;53.096;5.844;2023-04-24T04:15:01;7.60;;;4.35;;
49910;SDS011;35803;53.096;5.844;2023-04-24T04:17:27;5.75;;;3.90;;
49910;SDS011;35803;53.096;5.844;2023-04-24T04:19:52;7.00;;;3.97;;
49910;SDS011;35803;53.096;5.844;2023-04-24T04:22:18;6.05;;;3.92;;
49910;SDS011;35803;53.096;5.844;2023-04-24T04:24:44;6.47;;;4.13;;
49910;SDS011;35803;53.096;5.844;2023-04-24T04:27:11;8.77;;;4.30;;
49910;SDS011;35803;53.096;5.844;2023-04-24T04:29:37;7.65;;;4.88;;
49910;SDS011;35803;53.096;5.844;2023-04-24T04:32:03;8.50;;;5.07;;
49910;SDS011;35803;53.096;5.844;2023-04-24T04:34:29;6.85;;;4.32;;
49910;SDS011;35803;53.096;5.844;2023-04-24T04:36:55;6.95;;;4.28;;
49910;SDS011;35803;53.096;5.844;2023-04-24T04:39:20;4.97;;;3.15;;
49910;SDS011;35803;53.096;5.844;2023-04-24T04:41:46;4.65;;;3.03;;
49910;SDS011;35803;53.096;5.844;2023-04-24T04:44:14;2.60;;;1.70;;
49910;SDS011;35803;53.096;5.844;2023-04-24T04:46:40;1.70;;;1.45;;
49910;SDS011;35803;53.096;5.844;2023-04-24T04:49:06;1.90;;;1.40;;
49910;SDS011;35803;53.096;5.844;2023-04-24T04:51:33;1.70;;;1.40;;
49910;SDS011;35803;53.096;5.844;2023-04-24T04:53:59;1.83;;;1.63;;
49910;SDS011;35803;53.096;5.844;2023-04-24T04:56:25;2.25;;;1.80;;
49910;SDS011;35803;53.096;5.844;2023-04-24T04:58:51;3.78;;;1.98;;
49910;SDS011;35803;53.096;5.844;2023-04-24T05:01:16;3.95;;;2.75;;
49910;SDS011;35803;53.096;5.844;2023-04-24T05:03:42;4.68;;;2.75;;
49910;SDS011;35803;53.096;5.844;2023-04-24T05:06:08;7.35;;;3.40;;
49910;SDS011;35803;53.096;5.844;2023-04-24T05:08:40;7.75;;;4.00;;
49910;SDS011;35803;53.096;5.844;2023-04-24T05:11:05;8.20;;;4.17;;
49910;SDS011;35803;53.096;5.844;2023-04-24T05:13:31;12.73;;;5.22;;
49910;SDS011;35803;53.096;5.844;2023-04-24T05:15:57;12.52;;;5.28;;
49910;SDS011;35803;53.096;5.844;2023-04-24T05:18:22;11.27;;;5.88;;
49910;SDS011;35803;53.096;5.844;2023-04-24T05:20:48;11.98;;;5.97;;
49910;SDS011;35803;53.096;5.844;2023-04-24T05:23:13;12.07;;;6.00;;
49910;SDS011;35803;53.096;5.844;2023-04-24T05:25:39;11.48;;;6.80;;
49910;SDS011;35803;53.096;5.844;2023-04-24T05:28:05;12.30;;;5.95;;
49910;SDS011;35803;53.096;5.844;2023-04-24T05:30:31;13.13;;;6.25;;
49910;SDS011;35803;53.096;5.844;2023-04-24T05:32:56;13.57;;;6.13;;
49910;SDS011;35803;53.096;5.844;2023-04-24T05:35:22;13.00;;;6.85;;
49910;SDS011;35803;53.096;5.844;2023-04-24T05:37:47;10.60;;;5.78;;
49910;SDS011;35803;53.096;5.844;2023-04-24T05:40:13;10.07;;;5.72;;
49910;SDS011;35803;53.096;5.844;2023-04-24T05:42:39;8.27;;;4.10;;
49910;SDS011;35803;53.096;5.844;2023-04-24T05:45:05;6.05;;;4.40;;
49910;SDS011;35803;53.096;5.844;2023-04-24T05:47:31;4.15;;;3.22;;
49910;SDS011;35803;53.096;5.844;2023-04-24T05:49:56;3.67;;;3.22;;
49910;SDS011;35803;53.096;5.844;2023-04-24T05:52:22;3.35;;;3.00;;
49910;SDS011;35803;53.096;5.844;2023-04-24T05:54:47;4.55;;;3.22;;
49910;SDS011;35803;53.096;5.844;2023-04-24T05:57:15;4.93;;;3.47;;
49910;SDS011;35803;53.096;5.844;2023-04-24T05:59:41;4.13;;;3.30;;
49910;SDS011;35803;53.096;5.844;2023-04-24T06:02:07;5.57;;;3.17;;
49910;SDS011;35803;53.096;5.844;2023-04-24T06:04:33;5.63;;;3.30;;
49910;SDS011;35803;53.096;5.844;2023-04-24T06:06:58;4.38;;;2.92;;
49910;SDS011;35803;53.096;5.844;2023-04-24T06:09:25;3.20;;;2.45;;
49910;SDS011;35803;53.096;5.844;2023-04-24T06:11:51;3.25;;;2.05;;
49910;SDS011;35803;53.096;5.844;2023-04-24T06:14:18;2.72;;;1.73;;
49910;SDS011;35803;53.096;5.844;2023-04-24T06:16:44;3.67;;;2.15;;
49910;SDS011;35803;53.096;5.844;2023-04-24T06:19:09;2.35;;;1.73;;
49910;SDS011;35803;53.096;5.844;2023-04-24T06:21:38;1.80;;;1.42;;
49910;SDS011;35803;53.096;5.844;2023-04-24T06:24:07;1.92;;;1.60;;
49910;SDS011;35803;53.096;5.844;2023-04-24T06:26:32;3.55;;;1.90;;
49910;SDS011;35803;53.096;5.844;2023-04-24T06:28:58;2.60;;;2.08;;
49910;SDS011;35803;53.096;5.844;2023-04-24T06:31:25;2.60;;;2.10;;
49910;SDS011;35803;53.096;5.844;2023-04-24T06:33:51;3.42;;;2.45;;
49910;SDS011;35803;53.096;5.844;2023-04-24T06:36:16;5.95;;;3.15;;
49910;SDS011;35803;53.096;5.844;2023-04-24T06:38:42;6.18;;;3.80;;
49910;SDS011;35803;53.096;5.844;2023-04-24T06:41:08;9.68;;;4.32;;
49910;SDS011;35803;53.096;5.844;2023-04-24T06:43:33;9.27;;;4.97;;
49910;SDS011;35803;53.096;5.844;2023-04-24T06:45:59;13.48;;;6.53;;
49910;SDS011;35803;53.096;5.844;2023-04-24T06:48:25;12.95;;;7.13;;
49910;SDS011;35803;53.096;5.844;2023-04-24T06:50:51;16.95;;;7.47;;
49910;SDS011;35803;53.096;5.844;2023-04-24T06:53:17;18.45;;;8.75;;
49910;SDS011;35803;53.096;5.844;2023-04-24T06:55:43;21.00;;;8.70;;
49910;SDS011;35803;53.096;5.844;2023-04-24T06:58:10;23.50;;;8.98;;
49910;SDS011;35803;53.096;5.844;2023-04-24T07:00:36;19.83;;;9.30;;
49910;SDS011;35803;53.096;5.844;2023-04-24T07:03:01;18.80;;;8.05;;
49910;SDS011;35803;53.096;5.844;2023-04-24T07:05:27;13.77;;;7.28;;
49910;SDS011;35803;53.096;5.844;2023-04-24T07:07:53;13.75;;;7.13;;
49910;SDS011;35803;53.096;5.844;2023-04-24T07:10:18;12.32;;;7.30;;
49910;SDS011;35803;53.096;5.844;2023-04-24T07:12:45;17.80;;;7.68;;
49910;SDS011;35803;53.096;5.844;2023-04-24T07:15:12;15.82;;;8.15;;
49910;SDS011;35803;53.096;5.844;2023-04-24T07:17:37;15.57;;;8.07;;
49910;SDS011;35803;53.096;5.844;2023-04-24T07:20:04;19.23;;;9.20;;
49910;SDS011;35803;53.096;5.844;2023-04-24T07:22:30;19.88;;;9.95;;
49910;SDS011;35803;53.096;5.844;2023-04-24T07:24:56;19.33;;;10.10;;
49910;SDS011;35803;53.096;5.844;2023-04-24T07:27:21;22.05;;;11.40;;
49910;SDS011;35803;53.096;5.844;2023-04-24T07:29:47;21.38;;;11.10;;
49910;SDS011;35803;53.096;5.844;2023-04-24T07:32:13;20.40;;;10.07;;
49910;SDS011;35803;53.096;5.844;2023-04-24T07:34:38;15.25;;;9.07;;
49910;SDS011;35803;53.096;5.844;2023-04-24T07:37:04;20.58;;;9.57;;
49910;SDS011;35803;53.096;5.844;2023-04-24T07:39:33;21.08;;;9.60;;
49910;SDS011;35803;53.096;5.844;2023-04-24T07:41:59;17.83;;;9.05;;
49910;SDS011;35803;53.096;5.844;2023-04-24T07:44:24;15.90;;;8.13;;
49910;SDS011;35803;53.096;5.844;2023-04-24T07:46:50;16.30;;;8.90;;
49910;SDS011;35803;53.096;5.844;2023-04-24T07:49:15;16.10;;;7.63;;
49910;SDS011;35803;53.096;5.844;2023-04-24T07:51:41;14.80;;;7.78;;
49910;SDS011;35803;53.096;5.844;2023-04-24T07:54:07;13.55;;;6.60;;
49910;SDS011;35803;53.096;5.844;2023-04-24T07:56:32;13.13;;;6.13;;
49910;SDS011;35803;53.096;5.844;2023-04-24T07:58:58;13.40;;;5.88;;
49910;SDS011;35803;53.096;5.844;2023-04-24T08:01:24;11.27;;;6.32;;
49910;SDS011;35803;53.096;5.844;2023-04-24T08:03:50;10.00;;;6.15;;
49910;SDS011;35803;53.096;5.844;2023-04-24T08:06:16;9.63;;;5.93;;
49910;SDS011;35803;53.096;5.844;2023-04-24T08:08:41;10.05;;;5.78;;
49910;SDS011;35803;53.096;5.844;2023-04-24T08:11:07;9.60;;;5.97;;
49910;SDS011;35803;53.096;5.844;2023-04-24T08:13:33;8.40;;;5.63;;
49910;SDS011;35803;53.096;5.844;2023-04-24T08:15:58;10.02;;;5.38;;
49910;SDS011;35803;53.096;5.844;2023-04-24T08:18:24;9.57;;;5.72;;
49910;SDS011;35803;53.096;5.844;2023-04-24T08:20:53;8.50;;;5.50;;
49910;SDS011;35803;53.096;5.844;2023-04-24T08:23:18;8.55;;;5.13;;
49910;SDS011;35803;53.096;5.844;2023-04-24T08:25:44;9.82;;;5.15;;
49910;SDS011;35803;53.096;5.844;2023-04-24T08:28:09;7.07;;;4.88;;
49910;SDS011;35803;53.096;5.844;2023-04-24T08:30:36;8.10;;;4.88;;
49910;SDS011;35803;53.096;5.844;2023-04-24T08:33:02;6.20;;;4.30;;
49910;SDS011;35803;53.096;5.844;2023-04-24T08:35:27;6.80;;;4.32;;
49910;SDS011;35803;53.096;5.844;2023-04-24T08:37:53;9.05;;;4.53;;
49910;SDS011;35803;53.096;5.844;2023-04-24T08:40:19;6.82;;;3.67;;
49910;SDS011;35803;53.096;5.844;2023-04-24T08:42:48;6.60;;;3.85;;
49910;SDS011;35803;53.096;5.844;2023-04-24T08:45:15;7.10;;;3.50;;
49910;SDS011;35803;53.096;5.844;2023-04-24T08:47:40;8.65;;;4.07;;
49910;SDS011;35803;53.096;5.844;2023-04-24T08:50:07;8.25;;;3.55;;
49910;SDS011;35803;53.096;5.844;2023-04-24T08:52:33;5.75;;;3.33;;
49910;SDS011;35803;53.096;5.844;2023-04-24T08:55:00;5.43;;;3.67;;
49910;SDS011;35803;53.096;5.844;2023-04-24T08:57:26;5.82;;;2.97;;
49910;SDS011;35803;53.096;5.844;2023-04-24T08:59:53;8.35;;;2.63;;
49910;SDS011;35803;53.096;5.844;2023-04-24T09:02:19;6.53;;;3.13;;
49910;SDS011;35803;53.096;5.844;2023-04-24T09:04:45;9.65;;;2.90;;
49910;SDS011;35803;53.096;5.844;2023-04-24T09:07:11;4.80;;;2.75;;
49910;SDS011;35803;53.096;5.844;2023-04-24T09:09:37;5.30;;;2.90;;
49910;SDS011;35803;53.096;5.844;2023-04-24T09:12:04;4.45;;;2.60;;
49910;SDS011;35803;53.096;5.844;2023-04-24T09:14:30;6.53;;;2.75;;
49910;SDS011;35803;53.096;5.844;2023-04-24T09:16:58;5.78;;;2.75;;
49910;SDS011;35803;53.096;5.844;2023-04-24T09:19:24;6.35;;;3.08;;
49910;SDS011;35803;53.096;5.844;2023-04-24T09:21:50;7.55;;;2.80;;
49910;SDS011;35803;53.096;5.844;2023-04-24T09:24:20;7.25;;;2.80;;
49910;SDS011;35803;53.096;5.844;2023-04-24T09:26:55;6.07;;;2.88;;
49910;SDS011;35803;53.096;5.844;2023-04-24T09:29:26;4.28;;;2.30;;
49910;SDS011;35803;53.096;5.844;2023-04-24T09:31:53;5.07;;;2.38;;
49910;SDS011;35803;53.096;5.844;2023-04-24T09:34:25;4.55;;;2.13;;
49910;SDS011;35803;53.096;5.844;2023-04-24T09:36:51;7.53;;;2.40;;
49910;SDS011;35803;53.096;5.844;2023-04-24T09:39:18;5.82;;;2.05;;
49910;SDS011;35803;53.096;5.844;2023-04-24T09:44:17;3.78;;;1.80;;
49910;SDS011;35803;53.096;5.844;2023-04-24T09:46:45;2.97;;;1.65;;
49910;SDS011;35803;53.096;5.844;2023-04-24T09:49:15;4.55;;;1.80;;
49910;SDS011;35803;53.096;5.844;2023-04-24T09:51:42;4.47;;;1.75;;
49910;SDS011;35803;53.096;5.844;2023-04-24T09:54:14;3.05;;;1.75;;
49910;SDS011;35803;53.096;5.844;2023-04-24T09:56:45;2.88;;;1.70;;
49910;SDS011;35803;53.096;5.844;2023-04-24T09:59:12;5.22;;;1.95;;
49910;SDS011;35803;53.096;5.844;2023-04-24T10:01:41;5.57;;;2.10;;
49910;SDS011;35803;53.096;5.844;2023-04-24T10:04:20;3.45;;;1.85;;
49910;SDS011;35803;53.096;5.844;2023-04-24T10:06:48;8.60;;;1.35;;
49910;SDS011;35803;53.096;5.844;2023-04-24T10:09:15;5.00;;;1.85;;
49910;SDS011;35803;53.096;5.844;2023-04-24T10:11:45;5.18;;;1.48;;
49910;SDS011;35803;53.096;5.844;2023-04-24T10:14:13;4.72;;;1.67;;
49910;SDS011;35803;53.096;5.844;2023-04-24T10:16:40;5.72;;;1.60;;
49910;SDS011;35803;53.096;5.844;2023-04-24T10:19:06;2.80;;;1.50;;
49910;SDS011;35803;53.096;5.844;2023-04-24T10:21:32;4.75;;;1.20;;
49910;SDS011;35803;53.096;5.844;2023-04-24T10:23:59;3.58;;;1.52;;
49910;SDS011;35803;53.096;5.844;2023-04-24T10:26:31;6.35;;;1.50;;
49910;SDS011;35803;53.096;5.844;2023-04-24T10:28:57;2.90;;;1.45;;
49910;SDS011;35803;53.096;5.844;2023-04-24T10:31:23;4.07;;;1.23;;
49910;SDS011;35803;53.096;5.844;2023-04-24T10:33:49;1.85;;;1.10;;
49910;SDS011;35803;53.096;5.844;2023-04-24T10:36:15;4.90;;;1.50;;
49910;SDS011;35803;53.096;5.844;2023-04-24T10:38:41;4.63;;;1.45;;
49910;SDS011;35803;53.096;5.844;2023-04-24T10:41:11;3.20;;;1.30;;
49910;SDS011;35803;53.096;5.844;2023-04-24T10:43:45;4.00;;;1.30;;
49910;SDS011;35803;53.096;5.844;2023-04-24T10:46:15;6.05;;;1.20;;
49910;SDS011;35803;53.096;5.844;2023-04-24T10:48:47;3.58;;;1.25;;
49910;SDS011;35803;53.096;5.844;2023-04-24T10:51:17;3.38;;;1.38;;
49910;SDS011;35803;53.096;5.844;2023-04-24T10:53:44;2.38;;;1.15;;
49910;SDS011;35803;53.096;5.844;2023-04-24T10:56:09;2.63;;;1.20;;
49910;SDS011;35803;53.096;5.844;2023-04-24T10:58:36;1.65;;;1.17;;
49910;SDS011;35803;53.096;5.844;2023-04-24T11:01:02;4.07;;;1.27;;
49910;SDS011;35803;53.096;5.844;2023-04-24T11:03:29;3.15;;;1.38;;
49910;SDS011;35803;53.096;5.844;2023-04-24T11:10:59;2.67;;;1.20;;
49910;SDS011;35803;53.096;5.844;2023-04-24T11:16:20;0.90;;;0.90;;
49910;SDS011;35803;53.096;5.844;2023-04-24T11:18:50;2.88;;;1.13;;
49910;SDS011;35803;53.096;5.844;2023-04-24T11:21:30;2.17;;;1.00;;
49910;SDS011;35803;53.096;5.844;2023-04-24T11:29:46;4.68;;;1.10;;
49910;SDS011;35803;53.096;5.844;2023-04-24T11:32:26;3.78;;;1.00;;
49910;SDS011;35803;53.096;5.844;2023-04-24T11:34:58;1.02;;;0.63;;
49910;SDS011;35803;53.096;5.844;2023-04-24T11:37:27;3.75;;;1.20;;
49910;SDS011;35803;53.096;5.844;2023-04-24T11:39:55;2.75;;;1.08;;
49910;SDS011;35803;53.096;5.844;2023-04-24T11:42:22;2.65;;;1.20;;
49910;SDS011;35803;53.096;5.844;2023-04-24T11:44:54;2.47;;;1.10;;
49910;SDS011;35803;53.096;5.844;2023-04-24T11:47:30;2.10;;;0.80;;
49910;SDS011;35803;53.096;5.844;2023-04-24T11:49:58;2.88;;;0.93;;
49910;SDS011;35803;53.096;5.844;2023-04-24T11:52:24;1.90;;;1.00;;
49910;SDS011;35803;53.096;5.844;2023-04-24T11:54:50;5.63;;;1.20;;
49910;SDS011;35803;53.096;5.844;2023-04-24T11:57:16;2.05;;;0.90;;
49910;SDS011;35803;53.096;5.844;2023-04-24T11:59:44;1.65;;;1.15;;
49910;SDS011;35803;53.096;5.844;2023-04-24T12:02:19;1.30;;;0.60;;
49910;SDS011;35803;53.096;5.844;2023-04-24T12:04:49;2.13;;;0.85;;
49910;SDS011;35803;53.096;5.844;2023-04-24T12:07:15;2.50;;;0.70;;
49910;SDS011;35803;53.096;5.844;2023-04-24T12:09:44;4.00;;;1.00;;
49910;SDS011;35803;53.096;5.844;2023-04-24T12:12:11;5.30;;;1.10;;
49910;SDS011;35803;53.096;5.844;2023-04-24T12:14:44;1.65;;;0.90;;
49910;SDS011;35803;53.096;5.844;2023-04-24T12:17:15;2.70;;;0.65;;
49910;SDS011;35803;53.096;5.844;2023-04-24T12:19:45;0.60;;;0.60;;
49910;SDS011;35803;53.096;5.844;2023-04-24T12:24:58;0.57;;;0.50;;
49910;SDS011;35803;53.096;5.844;2023-04-24T12:27:26;0.85;;;0.52;;
49910;SDS011;35803;53.096;5.844;2023-04-24T12:29:57;1.00;;;0.68;;
49910;SDS011;35803;53.096;5.844;2023-04-24T12:32:28;0.70;;;0.60;;
49910;SDS011;35803;53.096;5.844;2023-04-24T12:34:53;0.95;;;0.60;;
49910;SDS011;35803;53.096;5.844;2023-04-24T12:37:20;2.03;;;0.60;;
49910;SDS011;35803;53.096;5.844;2023-04-24T12:42:28;1.27;;;0.70;;
49910;SDS011;35803;53.096;5.844;2023-04-24T12:45:13;1.10;;;0.68;;
49910;SDS011;35803;53.096;5.844;2023-04-24T12:47:40;1.75;;;1.05;;
49910;SDS011;35803;53.096;5.844;2023-04-24T12:50:13;1.70;;;0.77;;
49910;SDS011;35803;53.096;5.844;2023-04-24T12:52:40;1.85;;;0.52;;
49910;SDS011;35803;53.096;5.844;2023-04-24T12:55:07;1.55;;;0.60;;
49910;SDS011;35803;53.096;5.844;2023-04-24T12:57:37;1.60;;;0.50;;
49910;SDS011;35803;53.096;5.844;2023-04-24T13:00:04;0.80;;;0.70;;
49910;SDS011;35803;53.096;5.844;2023-04-24T13:02:30;1.77;;;0.63;;
49910;SDS011;35803;53.096;5.844;2023-04-24T13:04:57;3.88;;;0.80;;
49910;SDS011;35803;53.096;5.844;2023-04-24T13:07:25;1.75;;;1.00;;
49910;SDS011;35803;53.096;5.844;2023-04-24T13:09:52;1.42;;;0.70;;
49910;SDS011;35803;53.096;5.844;2023-04-24T13:12:19;6.70;;;1.05;;
49910;SDS011;35803;53.096;5.844;2023-04-24T13:14:47;3.35;;;1.67;;
49910;SDS011;35803;53.096;5.844;2023-04-24T13:17:13;5.55;;;1.80;;
49910;SDS011;35803;53.096;5.844;2023-04-24T13:19:40;5.45;;;1.80;;
49910;SDS011;35803;53.096;5.844;2023-04-24T13:22:08;6.53;;;1.13;;
49910;SDS011;35803;53.096;5.844;2023-04-24T13:24:34;4.43;;;1.60;;
49910;SDS011;35803;53.096;5.844;2023-04-24T13:27:00;3.92;;;1.17;;
49910;SDS011;35803;53.096;5.844;2023-04-24T13:29:27;5.68;;;1.33;;
49910;SDS011;35803;53.096;5.844;2023-04-24T13:31:53;11.98;;;4.13;;
49910;SDS011;35803;53.096;5.844;2023-04-24T13:34:20;4.03;;;1.98;;
49910;SDS011;35803;53.096;5.844;2023-04-24T13:36:46;4.65;;;1.35;;
49910;SDS011;35803;53.096;5.844;2023-04-24T13:39:12;3.75;;;1.55;;
49910;SDS011;35803;53.096;5.844;2023-04-24T13:41:38;7.47;;;1.42;;
49910;SDS011;35803;53.096;5.844;2023-04-24T13:44:05;8.13;;;2.30;;
49910;SDS011;35803;53.096;5.844;2023-04-24T13:46:31;5.30;;;1.55;;
49910;SDS011;35803;53.096;5.844;2023-04-24T13:48:58;3.67;;;1.60;;
49910;SDS011;35803;53.096;5.844;2023-04-24T13:51:25;5.20;;;1.48;;
49910;SDS011;35803;53.096;5.844;2023-04-24T13:53:52;5.45;;;1.52;;
49910;SDS011;35803;53.096;5.844;2023-04-24T13:56:18;7.53;;;2.28;;
49910;SDS011;35803;53.096;5.844;2023-04-24T13:58:43;9.13;;;2.08;;
49910;SDS011;35803;53.096;5.844;2023-04-24T14:01:09;7.20;;;1.73;;
49910;SDS011;35803;53.096;5.844;2023-04-24T14:03:36;8.55;;;1.95;;
49910;SDS011;35803;53.096;5.844;2023-04-24T14:06:06;5.25;;;1.63;;
49910;SDS011;35803;53.096;5.844;2023-04-24T14:08:31;3.90;;;1.73;;
49910;SDS011;35803;53.096;5.844;2023-04-24T14:10:57;5.85;;;1.42;;
49910;SDS011;35803;53.096;5.844;2023-04-24T14:13:23;6.00;;;1.90;;
49910;SDS011;35803;53.096;5.844;2023-04-24T14:15:48;7.03;;;1.90;;
49910;SDS011;35803;53.096;5.844;2023-04-24T14:18:14;5.97;;;1.90;;
49910;SDS011;35803;53.096;5.844;2023-04-24T14:20:42;3.35;;;1.63;;
49910;SDS011;35803;53.096;5.844;2023-04-24T14:23:07;5.50;;;1.98;;
49910;SDS011;35803;53.096;5.844;2023-04-24T14:25:33;4.20;;;1.77;;
49910;SDS011;35803;53.096;5.844;2023-04-24T14:28:02;4.43;;;1.80;;
49910;SDS011;35803;53.096;5.844;2023-04-24T14:30:30;4.88;;;1.70;;
49910;SDS011;35803;53.096;5.844;2023-04-24T14:32:56;4.00;;;1.50;;
49910;SDS011;35803;53.096;5.844;2023-04-24T14:35:22;4.88;;;1.92;;
49910;SDS011;35803;53.096;5.844;2023-04-24T14:37:47;4.88;;;1.60;;
49910;SDS011;35803;53.096;5.844;2023-04-24T14:40:14;5.53;;;2.25;;
49910;SDS011;35803;53.096;5.844;2023-04-24T14:42:42;4.65;;;2.85;;
49910;SDS011;35803;53.096;5.844;2023-04-24T14:45:10;5.35;;;2.20;;
49910;SDS011;35803;53.096;5.844;2023-04-24T14:47:36;4.97;;;2.35;;
49910;SDS011;35803;53.096;5.844;2023-04-24T14:50:02;6.75;;;2.20;;
49910;SDS011;35803;53.096;5.844;2023-04-24T14:52:28;6.88;;;2.13;;
49910;SDS011;35803;53.096;5.844;2023-04-24T14:54:54;5.20;;;2.00;;
49910;SDS011;35803;53.096;5.844;2023-04-24T14:57:23;5.22;;;1.85;;
49910;SDS011;35803;53.096;5.844;2023-04-24T14:59:51;5.75;;;2.17;;
49910;SDS011;35803;53.096;5.844;2023-04-24T15:02:16;6.20;;;2.00;;